Time;durP1;ratioP1;P1;durP2;ratioP2;P2;SDS_P1;SDS_P2;PMS_P1;PMS_P2;Temp;Humidity;BMP_temperature;BMP_pressure;BME280_temperature;BME280_humidity;BME280_pressure;Samples;Min_cycle;Max_cycle;Signal;HPM_P1;HPM_P2
2022/06/22 00:01:25;;;;;;;7.32;4.15;;;;;;;19.69;46.62;101233.19;5053658;28;20044;-67
2022/06/22 00:03:56;;;;;;;8.73;3.90;;;;;;;19.62;46.77;101230.25;5034758;28;20099;-68
2022/06/22 00:06:42;;;;;;;4.97;3.58;;;;;;;19.57;46.88;101239.91;5048409;28;20048;-67
2022/06/22 00:09:31;;;;;;;6.13;4.05;;;;;;;19.50;46.79;101245.09;5033183;28;20041;-67
2022/06/22 00:11:58;;;;;;;5.13;3.60;;;;;;;19.46;46.99;101242.84;5033434;28;20060;-67
2022/06/22 00:14:36;;;;;;;8.05;3.72;;;;;;;19.41;46.98;101243.31;5034470;28;20089;-67
2022/06/22 00:17:03;;;;;;;5.32;3.85;;;;;;;19.39;47.00;101241.75;5042405;28;20104;-67
2022/06/22 00:19:39;;;;;;;6.47;4.07;;;;;;;19.34;47.12;101239.50;5033432;28;20120;-67
2022/06/22 00:22:21;;;;;;;;;;;;;;;19.25;47.22;101232.25;5034300;28;20103;-67
2022/06/22 00:25:12;;;;;;;4.85;4.05;;;;;;;19.16;47.08;101230.44;5033169;28;19925;-67
2022/06/22 00:27:38;;;;;;;6.78;3.80;;;;;;;19.08;46.94;101235.81;5033134;28;20108;-67
2022/06/22 00:30:26;;;;;;;7.50;4.03;;;;;;;18.99;47.79;101223.97;5038781;28;20072;-67
2022/06/22 00:33:12;;;;;;;6.60;4.30;;;;;;;18.93;47.95;101213.72;5032607;28;20081;-67
2022/06/22 00:35:43;;;;;;;5.72;4.28;;;;;;;18.87;47.86;101215.19;5033030;28;20045;-67
2022/06/22 00:38:36;;;;;;;6.28;3.83;;;;;;;18.81;48.09;101210.34;5036852;28;20049;-66
2022/06/22 00:41:16;;;;;;;6.72;4.22;;;;;;;18.83;48.39;101211.06;5037449;28;20102;-67
2022/06/22 00:43:44;;;;;;;9.65;4.40;;;;;;;18.82;47.96;101206.63;5048675;28;20042;-67
2022/06/22 00:46:18;;;;;;;8.25;4.10;;;;;;;18.80;48.44;101205.94;5032736;28;20042;-67
2022/06/22 00:48:48;;;;;;;6.07;4.50;;;;;;;18.79;48.16;101206.94;5032810;28;20095;-66
2022/06/22 00:51:19;;;;;;;6.32;4.00;;;;;;;18.78;48.24;101209.81;5034743;28;20130;-67
2022/06/22 00:54:00;;;;;;;8.45;5.18;;;;;;;18.76;48.54;101206.38;5043989;28;20033;-67
2022/06/22 00:56:41;;;;;;;6.00;4.93;;;;;;;18.73;48.41;101200.25;5032466;28;20042;-67
2022/06/22 00:59:42;;;;;;;6.82;5.18;;;;;;;18.67;48.90;101205.44;5046470;28;20087;-67
2022/06/22 01:02:30;;;;;;;10.32;5.93;;;;;;;18.63;48.80;101214.91;5047715;28;20076;-67
2022/06/22 01:05:10;;;;;;;6.50;5.35;;;;;;;18.57;48.72;101208.16;5031112;28;20042;-66
2022/06/22 01:07:46;;;;;;;8.65;5.97;;;;;;;18.57;48.98;101201.84;5045944;28;20245;-67
2022/06/22 01:10:27;;;;;;;7.65;5.18;;;;;;;18.57;48.88;101201.84;5040079;28;20037;-67
2022/06/22 01:13:19;;;;;;;6.65;5.25;;;;;;;18.57;49.02;101202.72;5046499;28;20091;-67
2022/06/22 01:15:57;;;;;;;6.25;5.30;;;;;;;18.58;49.15;101203.56;5052000;28;20032;-66
2022/06/22 01:18:35;;;;;;;10.00;6.32;;;;;;;18.57;49.16;101205.44;5051649;28;20125;-68
2022/06/22 01:21:09;;;;;;;7.65;6.40;;;;;;;18.58;49.30;101215.34;5050645;28;20091;-67
2022/06/22 01:24:04;;;;;;;7.22;6.45;;;;;;;18.57;49.55;101208.16;5050844;28;20094;-66
2022/06/22 01:27:09;;;;;;;7.32;6.60;;;;;;;18.54;49.42;101199.44;5048169;28;20099;-67
2022/06/22 01:29:52;;;;;;;9.18;6.63;;;;;;;18.51;49.57;101205.19;5048257;28;20065;-66
2022/06/22 01:32:31;;;;;;;7.78;6.57;;;;;;;18.48;49.67;101217.22;5049981;28;20041;-67
2022/06/22 01:35:02;;;;;;;9.90;6.55;;;;;;;18.48;49.87;101217.22;5029157;28;20033;-67
2022/06/22 01:37:32;;;;;;;10.93;8.02;;;;;;;18.49;49.94;101215.38;5031792;28;20033;-66
2022/06/22 01:40:10;;;;;;;9.95;8.05;;;;;;;18.48;50.01;101213.66;5031915;28;20045;-67
2022/06/22 01:42:49;;;;;;;10.82;8.70;;;;;;;18.45;50.42;101209.38;5039116;28;20123;-67
2022/06/22 01:45:30;;;;;;;13.57;8.75;;;;;;;18.43;50.46;101212.25;5051207;28;20037;-67
2022/06/22 01:48:08;;;;;;;11.52;8.55;;;;;;;18.43;50.41;101208.66;5050977;28;20095;-66
2022/06/22 01:50:44;;;;;;;11.85;8.35;;;;;;;18.43;50.96;101198.63;5049390;28;20412;-67
2022/06/22 01:53:58;;;;;;;9.27;8.32;;;;;;;18.41;51.11;101191.63;5020734;28;20048;-67
2022/06/22 01:56:48;;;;;;;10.82;8.70;;;;;;;18.37;50.81;101184.78;5024433;28;20046;-67
2022/06/22 01:59:27;;;;;;;11.13;9.00;;;;;;;18.31;50.76;101183.53;5031493;28;20061;-67
2022/06/22 02:02:26;;;;;;;11.55;8.48;;;;;;;18.23;51.04;101178.00;5031040;28;20057;-67
2022/06/22 02:05:25;;;;;;;9.68;7.78;;;;;;;18.22;51.33;101187.16;5045677;28;20111;-67
2022/06/22 02:08:05;;;;;;;11.00;7.80;;;;;;;18.22;51.20;101191.75;5036483;28;20120;-67
2022/06/22 02:10:44;;;;;;;10.32;8.70;;;;;;;18.22;51.53;101184.44;5031379;28;20120;-67
2022/06/22 02:13:25;;;;;;;10.43;8.77;;;;;;;18.22;51.29;101179.00;5031093;28;20051;-67
2022/06/22 02:16:03;;;;;;;9.65;7.60;;;;;;;18.21;51.40;101173.72;5030939;28;20045;-67
2022/06/22 02:18:43;;;;;;;11.95;8.85;;;;;;;18.20;51.61;101172.00;5044953;28;20037;-67
2022/06/22 02:21:16;;;;;;;9.90;7.75;;;;;;;18.18;51.53;101168.56;5051167;28;20041;-67
2022/06/22 02:23:46;;;;;;;12.10;8.13;;;;;;;18.16;51.63;101173.31;5046669;28;20125;-67
2022/06/22 02:26:20;;;;;;;10.77;7.70;;;;;;;18.14;51.55;101167.16;5032237;28;20037;-67
2022/06/22 02:28:48;;;;;;;11.23;7.82;;;;;;;18.13;51.69;101171.75;5031700;28;20083;-67
2022/06/22 02:31:17;;;;;;;9.30;7.38;;;;;;;18.11;51.70;101173.75;5042700;28;20033;-67
2022/06/22 02:33:48;;;;;;;10.07;7.97;;;;;;;18.10;51.23;101175.63;5050068;28;20045;-67
2022/06/22 02:36:15;;;;;;;12.38;8.52;;;;;;;18.12;51.20;101182.78;5034229;28;20119;-67
2022/06/22 02:38:45;;;;;;;11.45;8.18;;;;;;;18.13;51.46;101173.59;5043106;28;20037;-67
2022/06/22 02:46:45;;;;;;;13.23;10.30;;;;;;;18.15;51.12;101133.53;5050109;28;19925;-67
2022/06/22 02:49:24;;;;;;;12.70;9.55;;;;;;;18.11;51.89;101130.28;5050836;28;20142;-67
2022/06/22 02:51:53;;;;;;;11.98;9.27;;;;;;;18.09;51.78;101129.56;5043911;28;20034;-67
2022/06/22 02:54:28;;;;;;;10.82;9.20;;;;;;;18.07;52.03;101121.56;5040135;28;20098;-67
2022/06/22 02:57:11;;;;;;;12.07;8.57;;;;;;;18.06;51.91;101133.44;5036196;28;20042;-67
2022/06/22 02:59:38;;;;;;;11.43;9.60;;;;;;;18.05;51.92;101136.31;5033350;28;20041;-67
2022/06/22 03:02:06;;;;;;;11.95;8.38;;;;;;;18.03;51.87;101141.03;5050358;28;20043;-67
2022/06/22 03:04:34;;;;;;;14.23;9.80;;;;;;;18.01;51.94;101149.34;5050768;28;20064;-67
2022/06/22 03:07:01;;;;;;;10.13;8.55;;;;;;;18.01;51.86;101156.63;5032682;28;20115;-67
2022/06/22 03:09:29;;;;;;;11.18;8.88;;;;;;;18.01;51.81;101167.50;5032833;28;20092;-67
2022/06/22 03:11:58;;;;;;;9.40;8.40;;;;;;;18.03;51.74;101170.94;5049803;28;20041;-67
2022/06/22 03:14:28;;;;;;;11.07;8.32;;;;;;;18.02;52.03;101180.09;5050641;28;20037;-67
2022/06/22 03:17:00;;;;;;;10.18;8.77;;;;;;;18.02;51.66;101180.09;5049461;28;20079;-67
2022/06/22 03:20:00;;;;;;;11.85;9.65;;;;;;;18.00;52.00;101187.53;5043818;28;20403;-69
2022/06/22 03:22:35;;;;;;;11.02;9.45;;;;;;;17.94;51.62;101182.69;5029842;28;20522;-67
2022/06/22 03:25:10;;;;;;;11.52;9.00;;;;;;;17.90;51.70;101184.84;5030448;28;20140;-67
2022/06/22 03:27:41;;;;;;;12.88;8.60;;;;;;;17.86;52.07;101185.28;5030738;28;20124;-67
2022/06/22 03:30:30;;;;;;;11.82;8.43;;;;;;;17.84;51.91;101187.31;5049869;28;20114;-68
2022/06/22 03:33:13;;;;;;;12.35;9.43;;;;;;;17.83;51.98;101175.56;5047275;28;20369;-67
2022/06/22 03:35:42;;;;;;;12.90;9.52;;;;;;;17.78;51.83;101176.00;5033909;28;20049;-67
2022/06/22 03:38:19;;;;;;;12.40;10.07;;;;;;;17.77;51.99;101176.16;5045477;28;20044;-67
2022/06/22 03:40:52;;;;;;;13.57;9.80;;;;;;;17.77;52.05;101184.28;5049420;28;20103;-67
2022/06/22 03:43:31;;;;;;;13.48;10.60;;;;;;;17.75;52.33;101179.00;5034266;28;20053;-66
2022/06/22 03:46:04;;;;;;;16.30;10.07;;;;;;;17.75;52.44;101167.28;5034526;28;20152;-66
2022/06/22 03:48:38;;;;;;;13.38;11.15;;;;;;;17.73;52.50;101162.00;5047802;28;20414;-67
2022/06/22 03:51:19;;;;;;;14.15;10.40;;;;;;;17.70;52.94;101156.84;5054091;28;20150;-67
2022/06/22 03:54:02;;;;;;;12.38;10.00;;;;;;;17.69;52.64;101154.28;5040765;28;20037;-68
2022/06/22 03:56:33;;;;;;;10.05;9.05;;;;;;;17.68;52.46;101152.56;5053136;28;20132;-67
2022/06/22 03:59:04;;;;;;;11.23;9.25;;;;;;;17.63;52.60;101153.00;5037858;28;20399;-67
2022/06/22 04:01:31;;;;;;;10.40;9.30;;;;;;;17.58;52.46;101146.28;5052768;28;20056;-67
2022/06/22 04:04:00;;;;;;;9.90;8.73;;;;;;;17.55;52.68;101143.88;5054005;28;20056;-67
2022/06/22 04:06:38;;;;;;;9.07;8.18;;;;;;;17.51;53.01;101142.44;5053607;28;20495;-67
2022/06/22 04:09:20;;;;;;;11.88;8.77;;;;;;;17.49;52.56;101137.16;5052538;28;20079;-67
2022/06/22 04:12:28;;;;;;;9.82;8.75;;;;;;;17.46;52.70;101135.59;5048648;28;20032;-67
2022/06/22 04:15:12;;;;;;;9.02;8.13;;;;;;;17.43;52.95;101129.59;5052319;28;20475;-67
2022/06/22 04:17:45;;;;;;;11.20;8.70;;;;;;;17.40;52.76;101138.03;5053482;28;20063;-67
2022/06/22 04:20:49;;;;;;;9.60;7.65;;;;;;;17.37;53.10;101131.03;5053190;28;20033;-67
2022/06/22 04:23:31;;;;;;;9.88;7.97;;;;;;;17.40;52.90;101138.91;5053615;28;20049;-67
2022/06/22 04:26:12;;;;;;;9.15;8.20;;;;;;;17.43;53.09;101149.47;5048526;28;20052;-67
2022/06/22 04:28:44;;;;;;;10.40;8.40;;;;;;;17.45;52.68;101149.31;5037385;28;20045;-67
2022/06/22 04:31:21;;;;;;;10.32;8.00;;;;;;;17.46;53.10;101156.47;5032779;28;20138;-67
2022/06/22 04:33:53;;;;;;;10.63;8.93;;;;;;;17.47;53.17;101160.88;5036886;28;20500;-67
2022/06/22 04:36:25;;;;;;;10.75;9.00;;;;;;;17.48;53.39;101162.59;5032566;28;20065;-67
2022/06/22 04:38:57;;;;;;;12.73;9.70;;;;;;;17.52;53.32;101164.03;5033696;28;20045;-67
2022/06/22 04:41:32;;;;;;;12.05;10.07;;;;;;;17.55;53.37;101152.88;5047033;28;20034;-67
2022/06/22 04:44:03;;;;;;;15.63;11.15;;;;;;;17.59;53.70;101161.56;5033127;28;20064;-67
2022/06/22 04:46:33;;;;;;;12.88;10.30;;;;;;;17.62;53.41;101167.56;5032579;28;20107;-67
2022/06/22 04:49:14;;;;;;;17.95;11.65;;;;;;;17.65;53.52;101167.28;5032759;28;20069;-67
2022/06/22 04:51:47;;;;;;;14.90;11.38;;;;;;;17.70;53.63;101169.59;5042451;28;20041;-67
2022/06/22 04:54:30;;;;;;;13.98;11.10;;;;;;;17.73;53.79;101170.16;5039452;28;20129;-67
2022/06/22 04:57:01;;;;;;;15.43;11.30;;;;;;;17.76;53.70;101169.00;5032515;28;20037;-67
2022/06/22 04:59:29;;;;;;;14.60;11.57;;;;;;;17.77;53.75;101171.56;5032565;28;20051;-67
2022/06/22 05:02:02;;;;;;;16.48;12.98;;;;;;;17.82;54.07;101173.84;5032391;28;20100;-67
2022/06/22 05:04:40;;;;;;;18.75;12.82;;;;;;;17.86;54.46;101178.00;5034859;28;20052;-67
2022/06/22 05:07:18;;;;;;;15.80;13.25;;;;;;;17.91;54.71;101185.72;5047647;28;20120;-67
2022/06/22 05:09:57;;;;;;;18.13;13.75;;;;;;;17.96;54.82;101191.56;5032290;28;20112;-66
2022/06/22 05:12:32;;;;;;;17.33;13.68;;;;;;;18.01;54.58;101195.53;5040123;28;20036;-67
2022/06/22 05:15:01;;;;;;;21.77;14.50;;;;;;;18.05;55.04;101196.09;5015695;28;20120;-67
2022/06/22 05:17:35;;;;;;;16.58;14.35;;;;;;;18.08;54.88;101202.09;5032023;28;20284;-67
2022/06/22 05:20:34;;;;;;;19.80;14.00;;;;;;;18.14;55.17;101207.94;5032031;28;20037;-67
2022/06/22 05:23:07;;;;;;;21.17;14.75;;;;;;;18.20;55.30;101218.22;5051907;28;20049;-67
2022/06/22 05:25:35;;;;;;;19.17;13.35;;;;;;;18.24;55.64;101215.06;5049791;28;20049;-68
2022/06/22 05:28:16;;;;;;;18.35;13.73;;;;;;;18.29;55.83;101223.63;5036315;28;20115;-67
2022/06/22 05:30:54;;;;;;;19.88;14.85;;;;;;;18.34;55.58;101220.44;5046587;28;20051;-67
2022/06/22 05:33:25;;;;;;;24.17;15.75;;;;;;;18.39;56.08;101220.84;5032838;28;20120;-67
2022/06/22 05:36:03;;;;;;;19.48;14.65;;;;;;;18.45;56.16;101219.38;5032234;28;20033;-67
2022/06/22 05:38:42;;;;;;;21.38;15.30;;;;;;;18.50;56.04;101217.94;5031797;28;20124;-67
2022/06/22 05:41:10;;;;;;;17.15;14.25;;;;;;;18.57;56.06;101224.47;5032094;28;20041;-67
2022/06/22 05:43:40;;;;;;;22.50;15.05;;;;;;;18.63;56.64;101228.50;5031626;28;20096;-67
2022/06/22 05:46:07;;;;;;;19.90;14.60;;;;;;;18.72;56.32;101222.16;5032886;28;20038;-68
2022/06/22 05:48:41;;;;;;;22.10;14.65;;;;;;;18.81;56.87;101207.63;5032523;28;20029;-67
2022/06/22 05:51:27;;;;;;;19.98;13.98;;;;;;;18.92;56.80;101203.84;5051308;28;20043;-67
2022/06/22 05:54:22;;;;;;;19.30;14.30;;;;;;;19.04;56.63;101206.19;5050998;28;20124;-68
2022/06/22 05:57:08;;;;;;;17.73;13.32;;;;;;;19.17;56.86;101203.06;5051924;28;20037;-68
2022/06/22 05:59:54;;;;;;;15.88;13.00;;;;;;;19.32;56.47;101214.25;5051673;28;20044;-71
2022/06/22 06:02:29;;;;;;;16.08;12.52;;;;;;;19.49;56.50;101220.72;5051872;28;20037;-71
2022/06/22 06:05:05;;;;;;;14.73;12.30;;;;;;;19.62;56.75;101222.06;5050342;28;20064;-71
2022/06/22 06:07:54;;;;;;;14.52;12.75;;;;;;;19.77;56.66;101226.94;5052033;28;20112;-71
2022/06/22 06:10:30;;;;;;;16.45;11.38;;;;;;;19.93;56.26;101225.19;5050207;28;20045;-71
2022/06/22 06:13:21;;;;;;;16.83;11.70;;;;;;;20.14;56.30;101223.97;5050313;28;20055;-72
2022/06/22 06:15:52;;;;;;;18.00;11.82;;;;;;;20.33;55.91;101234.63;5051146;28;20087;-71
2022/06/22 06:18:28;;;;;;;15.48;10.25;;;;;;;20.53;55.73;101241.59;5050835;28;20056;-70
2022/06/22 06:21:19;;;;;;;16.98;9.95;;;;;;;20.66;55.45;101227.47;5051095;28;20157;-70
2022/06/22 06:23:52;;;;;;;15.60;10.73;;;;;;;20.83;55.35;101234.72;5048895;28;20064;-71
2022/06/22 06:29:32;;;;;;;11.55;9.02;;;;;;;21.18;54.81;101238.22;5050807;28;20037;-71
2022/06/22 06:32:34;;;;;;;13.55;9.27;;;;;;;21.39;54.75;101230.41;5050877;28;20037;-71
2022/06/22 06:35:15;;;;;;;14.02;8.73;;;;;;;21.61;54.00;101237.13;5050511;28;20049;-71
2022/06/22 06:37:56;;;;;;;13.48;9.27;;;;;;;21.80;53.76;101238.63;5051161;28;20065;-74
2022/06/22 06:40:43;;;;;;;16.00;9.57;;;;;;;21.95;53.03;101230.59;5050698;28;20178;-71
2022/06/22 06:43:36;;;;;;;10.85;8.68;;;;;;;22.13;52.97;101232.09;5042513;28;20045;-72
2022/06/22 06:46:10;;;;;;;15.65;8.80;;;;;;;22.32;52.74;101235.50;5030460;28;20037;-69
2022/06/22 06:48:40;;;;;;;11.73;7.93;;;;;;;22.51;52.55;101229.63;5030733;28;20044;-72
2022/06/22 06:51:11;;;;;;;10.40;7.55;;;;;;;22.71;52.39;101233.63;5030913;28;20042;-68
2022/06/22 06:53:51;;;;;;;11.32;8.18;;;;;;;22.90;51.93;101229.63;5030740;28;20526;-70
2022/06/22 06:56:25;;;;;;;10.63;7.53;;;;;;;23.09;51.35;101233.81;5030904;28;20045;-70
2022/06/22 06:58:55;;;;;;;10.45;8.05;;;;;;;23.25;51.21;101228.22;5032103;28;20477;-70
2022/06/22 07:01:27;;;;;;;12.57;7.32;;;;;;;23.39;50.73;101227.44;5030886;28;20045;-70
2022/06/22 07:04:02;;;;;;;8.65;6.88;;;;;;;23.55;50.55;101211.91;5030561;28;20080;-70
2022/06/22 07:06:29;;;;;;;;;;;;;;;23.69;50.27;101214.69;5034084;28;20049;-70
2022/06/22 07:09:31;;;;;;;12.35;7.15;;;;;;;23.87;50.15;101208.91;5034537;28;19921;-70
2022/06/22 07:12:07;;;;;;;11.52;6.93;;;;;;;23.96;49.59;101199.53;5034493;28;20041;-70
2022/06/22 07:14:44;;;;;;;9.45;7.45;;;;;;;24.03;49.16;101200.50;5034796;28;20088;-70
2022/06/22 07:17:15;;;;;;;11.38;6.47;;;;;;;24.11;48.68;101206.94;5034653;28;20120;-70
2022/06/22 07:19:43;;;;;;;8.70;6.40;;;;;;;24.19;48.39;101201.34;5034454;28;20041;-70
2022/06/22 07:22:22;;;;;;;9.90;6.85;;;;;;;24.26;48.45;101197.66;5036062;28;20550;-71
2022/06/22 07:25:00;;;;;;;7.55;5.70;;;;;;;24.38;48.21;101189.81;5055114;28;20536;-71
2022/06/22 07:27:52;;;;;;;9.18;6.75;;;;;;;24.49;47.84;101197.56;5055018;28;20037;-70
2022/06/22 07:30:31;;;;;;;9.77;6.65;;;;;;;24.63;47.64;101188.50;5053992;28;20111;-69
2022/06/22 07:33:32;;;;;;;8.93;6.28;;;;;;;24.77;47.43;101189.50;5054562;28;20124;-70
2022/06/22 07:36:01;;;;;;;8.38;6.35;;;;;;;24.92;47.44;101184.81;5014327;28;20034;-69
2022/06/22 07:38:30;;;;;;;8.77;6.70;;;;;;;25.00;47.08;101186.63;5014329;28;20052;-69
2022/06/22 07:43:48;;;;;;;7.25;5.82;;;;;;;25.10;46.05;101169.81;5033622;28;20045;-68
2022/06/22 07:46:30;;;;;;;12.38;6.03;;;;;;;25.10;45.66;101172.56;5037742;28;20050;-71
2022/06/22 07:49:23;;;;;;;12.43;5.78;;;;;;;25.08;45.48;101156.25;5042800;28;20091;-68
2022/06/22 07:51:56;;;;;;;10.25;5.95;;;;;;;25.09;45.55;101160.72;5048531;28;20049;-68
2022/06/22 07:54:46;;;;;;;10.82;6.32;;;;;;;25.06;45.39;101166.59;5053616;28;20369;-68
2022/06/22 07:57:34;;;;;;;10.07;6.68;;;;;;;25.09;45.55;101173.59;5052550;28;20037;-68
2022/06/22 08:00:11;;;;;;;11.02;5.95;;;;;;;25.13;45.36;101177.66;5053429;28;20047;-68
2022/06/22 08:03:00;;;;;;;9.10;5.90;;;;;;;25.17;45.57;101173.47;5052553;28;20041;-68
2022/06/22 08:05:34;;;;;;;9.90;5.47;;;;;;;25.22;45.13;101181.97;5052437;28;20041;-68
2022/06/22 08:08:02;;;;;;;7.78;5.38;;;;;;;25.29;45.08;101186.53;5053584;28;20129;-68
2022/06/22 08:10:50;;;;;;;6.68;5.25;;;;;;;25.34;44.67;101185.94;5053303;28;20051;-68
2022/06/22 08:13:22;;;;;;;7.80;4.90;;;;;;;25.39;44.85;101188.09;5052098;28;20449;-68
2022/06/22 08:15:59;;;;;;;6.32;5.13;;;;;;;25.42;44.67;101187.69;5053398;28;20037;-68
2022/06/22 08:18:28;;;;;;;7.00;4.75;;;;;;;25.43;44.14;101181.13;5052481;28;20053;-68
2022/06/22 08:20:57;;;;;;;5.55;4.30;;;;;;;25.43;43.93;101184.75;5053419;28;20048;-68
2022/06/22 08:23:27;;;;;;;7.38;4.60;;;;;;;25.45;43.57;101188.13;5052855;28;20090;-69
2022/06/22 08:26:02;;;;;;;7.75;5.20;;;;;;;25.50;43.73;101187.53;5053260;28;20037;-68
2022/06/22 08:28:33;;;;;;;8.98;4.55;;;;;;;25.51;43.53;101187.34;5053110;28;20033;-68
2022/06/22 08:30:59;;;;;;;6.00;4.40;;;;;;;25.53;43.53;101199.00;5046606;28;20069;-68
2022/06/22 08:33:38;;;;;;;6.70;4.65;;;;;;;25.59;43.74;101197.34;5034995;28;20099;-71
2022/06/22 08:36:16;;;;;;;9.45;4.55;;;;;;;25.73;43.28;101203.84;5052489;28;20463;-70
2022/06/22 08:38:55;;;;;;;5.47;3.72;;;;;;;25.85;43.27;101210.50;5013329;28;20038;-70
2022/06/22 08:41:44;;;;;;;9.40;5.25;;;;;;;25.98;43.02;101197.69;5013364;28;20041;-70
2022/06/22 08:44:38;;;;;;;6.63;4.07;;;;;;;26.09;42.57;101209.22;5011944;28;20054;-70
2022/06/22 08:47:11;;;;;;;6.47;4.32;;;;;;;26.23;42.67;101202.75;5013030;28;20124;-70
2022/06/22 08:49:57;;;;;;;7.68;4.38;;;;;;;26.36;42.27;101194.59;5013102;28;20137;-71
2022/06/22 08:53:00;;;;;;;8.23;4.40;;;;;;;26.47;42.00;101196.75;5047801;28;20069;-69
2022/06/22 08:55:57;;;;;;;5.85;4.10;;;;;;;26.60;41.59;101202.31;5042109;28;20446;-69
2022/06/22 08:58:32;;;;;;;8.05;4.20;;;;;;;26.71;41.08;101200.88;5033281;28;20045;-69
2022/06/22 09:01:11;;;;;;;5.35;4.13;;;;;;;26.79;40.90;101199.88;5032524;28;20038;-69
2022/06/22 09:04:18;;;;;;;8.18;4.72;;;;;;;26.91;40.71;101200.97;5034813;28;20041;-70
2022/06/22 09:07:03;;;;;;;8.60;4.47;;;;;;;27.06;40.67;101192.56;5015362;28;20053;-69
2022/06/22 09:09:58;;;;;;;9.63;4.93;;;;;;;27.15;40.44;101186.66;5052215;28;20057;-70
2022/06/22 09:12:59;;;;;;;13.20;4.25;;;;;;;27.22;40.01;101194.94;5052307;28;20095;-70
2022/06/22 09:15:41;;;;;;;7.95;4.00;;;;;;;27.35;40.28;101194.09;5052227;28;20056;-71
2022/06/22 09:18:10;;;;;;;6.32;3.78;;;;;;;27.47;39.82;101195.16;5052233;28;20029;-70
2022/06/22 09:20:50;;;;;;;7.93;4.05;;;;;;;27.57;40.00;101194.78;5052266;28;20069;-70
2022/06/22 09:23:35;;;;;;;8.10;4.65;;;;;;;27.70;39.32;101205.84;5052599;28;20033;-71
2022/06/22 09:26:23;;;;;;;7.28;3.60;;;;;;;27.79;38.93;101199.03;5050225;28;20126;-71
2022/06/22 09:29:32;;;;;;;6.55;4.00;;;;;;;27.86;38.83;101202.66;5051187;28;20505;-70
2022/06/22 09:31:59;;;;;;;6.38;3.45;;;;;;;28.00;38.72;101206.25;5032120;28;20047;-70
2022/06/22 09:34:49;;;;;;;5.53;3.65;;;;;;;28.13;38.23;101204.31;5036724;28;20041;-70
2022/06/22 09:37:40;;;;;;;6.70;3.50;;;;;;;28.21;37.84;101207.91;5031953;28;20033;-70
2022/06/22 09:40:46;;;;;;;5.43;3.70;;;;;;;28.30;37.71;101209.44;5030627;28;20041;-71
2022/06/22 09:43:34;;;;;;;6.03;3.50;;;;;;;28.40;37.48;101205.16;5030314;28;20045;-71
2022/06/22 09:46:09;;;;;;;4.85;3.15;;;;;;;28.51;37.66;101198.09;5031601;28;20797;-71
2022/06/22 09:49:12;;;;;;;7.72;3.70;;;;;;;28.59;37.30;101205.28;5031561;28;20046;-71
2022/06/22 09:51:56;;;;;;;6.50;3.70;;;;;;;28.71;37.17;101209.91;5024122;28;20065;-71
2022/06/22 09:58:05;;;;;;;4.22;2.50;;;;;;;28.85;36.25;101196.91;5043710;28;20095;-71
2022/06/22 10:00:49;;;;;;;7.93;3.05;;;;;;;28.96;36.23;101196.19;5051264;28;20053;-70
2022/06/22 10:03:32;;;;;;;9.13;3.33;;;;;;;29.10;36.29;101200.63;5050918;28;20033;-73
2022/06/22 10:06:13;;;;;;;7.50;2.53;;;;;;;29.30;36.00;101203.25;5050903;28;20049;-72
2022/06/22 10:08:39;;;;;;;5.10;2.50;;;;;;;29.47;35.70;101200.81;5051417;28;20037;-71
2022/06/22 10:11:22;;;;;;;7.35;2.63;;;;;;;29.60;35.15;101186.88;5051217;28;20047;-72
2022/06/22 10:14:18;;;;;;;3.63;1.80;;;;;;;29.69;34.86;101188.28;5050787;28;20120;-72
2022/06/22 10:16:56;;;;;;;5.28;1.83;;;;;;;29.77;34.47;101192.72;5051016;28;20090;-72
2022/06/22 10:19:59;;;;;;;3.50;1.80;;;;;;;29.83;34.03;101194.56;5051031;28;20049;-71
2022/06/22 10:22:50;;;;;;;5.65;1.98;;;;;;;29.92;33.93;101187.66;5050755;28;20360;-69
2022/06/22 10:25:36;;;;;;;3.75;2.10;;;;;;;29.96;33.24;101186.13;5051002;28;20259;-72
2022/06/22 10:28:22;;;;;;;5.47;1.85;;;;;;;30.02;32.92;101189.94;5051138;28;20037;-70
2022/06/22 10:31:09;;;;;;;8.13;1.83;;;;;;;30.07;32.63;101192.88;5045835;28;20029;-69
2022/06/22 10:33:57;;;;;;;5.43;2.00;;;;;;;30.08;32.38;101180.72;5030713;28;20054;-71
2022/06/22 10:36:59;;;;;;;5.20;1.90;;;;;;;30.12;32.19;101176.41;5030986;28;20041;-69
2022/06/22 10:39:31;;;;;;;6.00;1.95;;;;;;;30.20;32.18;101170.56;5029659;28;20115;-70
2022/06/22 10:45:30;;;;;;;4.15;1.50;;;;;;;30.46;32.12;101163.00;5034914;28;20438;-69
2022/06/22 10:48:29;;;;;;;5.80;1.80;;;;;;;30.65;31.81;101161.97;5052949;28;20091;-70
2022/06/22 10:51:24;;;;;;;5.25;1.52;;;;;;;30.75;31.72;101166.97;5047123;28;20048;-71
2022/06/22 10:54:20;;;;;;;5.22;1.50;;;;;;;30.85;31.29;101158.91;5034536;28;20049;-71
2022/06/22 10:57:02;;;;;;;3.08;1.90;;;;;;;30.99;31.24;101144.63;5034937;28;20046;-71
2022/06/22 10:59:49;;;;;;;3.90;1.60;;;;;;;31.07;30.85;101150.91;5034473;28;20049;-71
2022/06/22 11:02:59;;;;;;;7.85;1.80;;;;;;;31.15;30.58;101148.66;5034680;28;20553;-71
2022/06/22 11:05:44;;;;;;;5.28;1.70;;;;;;;31.25;30.16;101156.44;5035591;28;20048;-71
2022/06/22 11:08:10;;;;;;;4.55;1.70;;;;;;;31.33;30.27;101152.47;5034670;28;20041;-71
2022/06/22 11:10:43;;;;;;;2.65;1.90;;;;;;;31.40;29.88;101151.28;5034595;28;20034;-70
2022/06/22 11:13:15;;;;;;;6.32;2.00;;;;;;;31.46;29.98;101158.66;5034325;28;20046;-70
2022/06/22 11:16:06;;;;;;;3.70;1.63;;;;;;;31.54;29.96;101161.09;5034047;28;20566;-70
2022/06/22 11:18:54;;;;;;;3.22;1.58;;;;;;;31.65;29.48;101142.75;5034395;28;20518;-70
2022/06/22 11:22:05;;;;;;;4.70;1.65;;;;;;;31.73;29.52;101138.78;5034366;28;20120;-70
2022/06/22 11:24:57;;;;;;;2.67;1.67;;;;;;;31.84;29.33;101133.22;5034095;28;20049;-71
2022/06/22 11:30:56;;;;;;;3.55;1.70;;;;;;;32.05;29.35;101137.34;5034178;28;20049;-68
2022/06/22 11:34:01;;;;;;;5.95;1.40;;;;;;;32.14;29.14;101141.44;5035457;28;20091;-67
2022/06/22 11:37:00;;;;;;;4.03;1.60;;;;;;;32.19;28.76;101146.25;5051996;28;20445;-68
2022/06/22 11:40:17;;;;;;;4.15;1.33;;;;;;;32.22;28.62;101143.84;5054268;28;20063;-67
2022/06/22 11:43:27;;;;;;;4.25;1.30;;;;;;;32.33;28.29;101149.63;5052285;28;20057;-67
2022/06/22 11:46:17;;;;;;;2.45;1.27;;;;;;;32.46;28.45;101152.97;5040400;28;20135;-67
2022/06/22 11:49:01;;;;;;;2.50;1.23;;;;;;;32.57;28.32;101156.81;5053912;28;20052;-68
2022/06/22 11:52:00;;;;;;;3.58;1.48;;;;;;;32.63;28.08;101153.06;5051928;28;20049;-68
2022/06/22 11:54:48;;;;;;;2.33;1.42;;;;;;;32.62;27.64;101158.84;5016792;28;20060;-68
2022/06/22 11:57:37;;;;;;;5.95;1.50;;;;;;;32.68;27.46;101160.66;5052610;28;20059;-68
2022/06/22 12:00:25;;;;;;;3.50;1.30;;;;;;;32.76;27.07;101161.13;5053566;28;20064;-68
2022/06/22 12:03:31;;;;;;;1.98;1.30;;;;;;;32.78;27.33;101156.19;5053521;28;20120;-67
2022/06/22 12:06:11;;;;;;;4.38;1.45;;;;;;;32.84;27.11;101149.63;5053844;28;20033;-70
2022/06/22 12:09:02;;;;;;;2.72;0.95;;;;;;;32.81;26.29;101152.91;5034571;28;20041;-71
2022/06/22 12:11:32;;;;;;;5.38;1.55;;;;;;;32.82;26.39;101150.97;5033545;28;20037;-70
2022/06/22 12:17:38;;;;;;;3.30;1.33;;;;;;;32.86;25.95;101143.81;5033391;28;20049;-67
2022/06/22 12:20:04;;;;;;;4.70;1.40;;;;;;;32.85;25.89;101137.41;5028175;28;20045;-67
2022/06/22 12:22:52;;;;;;;3.70;1.63;;;;;;;32.87;26.25;101139.94;5034054;28;20050;-67
2022/06/22 12:25:26;;;;;;;1.67;1.35;;;;;;;32.89;25.93;101136.91;5033194;28;20049;-67
2022/06/22 12:28:19;;;;;;;3.33;1.73;;;;;;;32.85;25.43;101129.06;5033378;28;20042;-67
2022/06/22 12:31:17;;;;;;;3.65;1.52;;;;;;;32.75;25.58;101114.94;5029089;28;20158;-67
2022/06/22 12:34:16;;;;;;;3.97;1.60;;;;;;;32.80;25.91;101115.06;5011957;28;20510;-67
2022/06/22 12:36:50;;;;;;;2.72;1.23;;;;;;;32.86;25.96;101104.88;5014349;28;20065;-67
2022/06/22 12:39:35;;;;;;;3.33;1.40;;;;;;;32.94;25.89;101111.97;5013213;28;20107;-67
2022/06/22 12:42:20;;;;;;;2.75;1.15;;;;;;;33.07;25.99;101103.31;5013038;28;20048;-66
2022/06/22 12:45:13;;;;;;;2.85;1.20;;;;;;;33.16;25.67;101102.63;5013165;28;20125;-67
2022/06/22 12:48:11;;;;;;;3.97;1.50;;;;;;;33.26;25.26;101089.97;5013058;28;20042;-67
2022/06/22 12:51:02;;;;;;;5.38;1.70;;;;;;;33.25;24.99;101094.72;5013003;28;20038;-67